createdAt,value
2022-10-19T00:00:22.710Z,0
2022-10-19T00:01:25.610Z,0
2022-10-19T00:02:22.896Z,0
2022-10-19T00:03:26.020Z,0
2022-10-19T00:04:20.870Z,0
2022-10-19T00:05:31.090Z,0
2022-10-19T00:06:25.026Z,0
2022-10-19T00:07:26.425Z,0
2022-10-19T00:08:32.298Z,0
2022-10-19T00:09:25.170Z,0
2022-10-19T00:10:29.543Z,0
2022-10-19T00:11:20.732Z,0
2022-10-19T00:12:33.743Z,0
2022-10-19T00:13:22.912Z,0
2022-10-19T00:14:22.788Z,0
2022-10-19T00:15:33.507Z,0
2022-10-19T00:16:34.255Z,0
2022-10-19T00:17:25.824Z,0
2022-10-19T00:18:20.628Z,0
2022-10-19T00:19:34.302Z,0
2022-10-19T00:20:23.860Z,0
2022-10-19T00:21:25.075Z,0
2022-10-19T00:22:34.258Z,0
2022-10-19T00:23:31.520Z,0
2022-10-19T00:24:25.011Z,0
2022-10-19T00:25:21.030Z,0
2022-10-19T00:26:30.818Z,0
2022-10-19T00:27:27.462Z,0
2022-10-19T00:28:25.320Z,0
2022-10-19T00:29:22.290Z,0
2022-10-19T00:30:31.021Z,0
2022-10-19T00:31:25.129Z,0
2022-10-19T00:32:21.027Z,0
2022-10-19T00:33:33.121Z,0
2022-10-19T00:34:33.002Z,0
2022-10-19T00:35:22.988Z,0
2022-10-19T00:36:29.775Z,0
2022-10-19T00:37:25.533Z,0
2022-10-19T00:38:25.046Z,0
2022-10-19T00:39:21.203Z,0
2022-10-19T00:40:37.529Z,0
2022-10-19T00:41:29.735Z,0
2022-10-19T00:42:23.190Z,0
2022-10-19T00:43:36.074Z,0
2022-10-19T00:44:21.825Z,0
2022-10-19T00:45:31.371Z,0
2022-10-19T00:46:21.366Z,0
2022-10-19T00:47:24.495Z,0
2022-10-19T00:48:22.758Z,0
2022-10-19T00:49:25.225Z,0
2022-10-19T00:50:33.421Z,0
2022-10-19T00:51:29.215Z,0
2022-10-19T00:52:27.053Z,0
2022-10-19T00:53:21.103Z,0
2022-10-19T00:54:28.757Z,0
2022-10-19T00:55:28.533Z,0
2022-10-19T00:56:25.526Z,0
2022-10-19T00:57:33.219Z,0
2022-10-19T00:58:29.696Z,0
2022-10-19T00:59:20.757Z,0
2022-10-19T01:00:28.850Z,0
2022-10-19T01:01:37.942Z,0
2022-10-19T01:02:23.942Z,0
2022-10-19T01:03:44.931Z,0
2022-10-19T01:42:46.871Z,0
2022-10-19T01:43:32.516Z,0
2022-10-19T01:44:25.905Z,0
2022-10-19T01:45:24.264Z,0
2022-10-19T01:47:10.995Z,0
2022-10-19T01:47:20.978Z,0
2022-10-19T01:48:27.405Z,0
2022-10-19T02:21:35.084Z,0
2022-10-19T02:22:28.166Z,0
2022-10-19T02:23:25.111Z,0
2022-10-19T02:24:23.407Z,0
2022-10-19T02:25:27.014Z,0
2022-10-19T02:26:30.882Z,0
2022-10-19T02:27:25.907Z,0
2022-10-19T02:28:37.537Z,0
2022-10-19T02:29:22.956Z,0
2022-10-19T02:30:27.834Z,0
2022-10-19T02:31:35.390Z,0
2022-10-19T02:32:35.660Z,0
2022-10-19T02:33:21.422Z,0
2022-10-19T02:34:22.648Z,0
2022-10-19T02:35:27.859Z,0
2022-10-19T02:36:30.844Z,0
2022-10-19T02:37:30.823Z,0
2022-10-19T02:38:20.717Z,0
2022-10-19T02:39:33.704Z,0
2022-10-19T02:40:27.096Z,0
2022-10-19T02:41:23.901Z,0
2022-10-19T02:42:33.431Z,0
2022-10-19T02:43:30.790Z,0
2022-10-19T02:44:25.077Z,0
2022-10-19T02:45:24.054Z,0
2022-10-19T02:46:26.973Z,0
2022-10-19T02:47:29.827Z,0
2022-10-19T02:48:25.205Z,0
2022-10-19T02:49:34.861Z,0
2022-10-19T02:50:30.595Z,0
2022-10-19T02:51:24.961Z,0
2022-10-19T02:52:21.828Z,0
2022-10-19T02:53:23.651Z,0
2022-10-19T02:54:28.574Z,0
2022-10-19T02:55:25.522Z,0
2022-10-19T02:56:34.656Z,0
2022-10-19T02:57:20.874Z,0
2022-10-19T02:58:26.781Z,0
2022-10-19T02:59:23.133Z,0
2022-10-19T03:00:26.220Z,0
2022-10-19T03:01:29.410Z,0
2022-10-19T03:02:23.038Z,0
2022-10-19T03:03:19.670Z,0
2022-10-19T03:04:30.524Z,0
2022-10-19T03:05:24.817Z,0
2022-10-19T03:06:29.595Z,0
2022-10-19T03:07:33.215Z,0
2022-10-19T03:08:27.425Z,0
2022-10-19T03:09:22.929Z,0
2022-10-19T03:10:24.508Z,0
2022-10-19T03:11:20.544Z,0
2022-10-19T03:12:24.853Z,0
2022-10-19T03:13:22.568Z,0
2022-10-19T03:14:24.511Z,0
2022-10-19T03:15:28.643Z,0
2022-10-19T03:16:22.893Z,0
2022-10-19T03:17:27.479Z,0
2022-10-19T03:18:23.974Z,0
2022-10-19T03:19:24.780Z,0
2022-10-19T03:20:22.412Z,0
2022-10-19T03:21:23.248Z,0
2022-10-19T03:22:29.515Z,0
2022-10-19T03:23:26.459Z,0
2022-10-19T03:24:31.345Z,0
2022-10-19T03:25:29.729Z,0
2022-10-19T03:26:21.655Z,0
2022-10-19T03:27:20.941Z,0
2022-10-19T03:28:23.882Z,0
2022-10-19T03:29:27.371Z,0
2022-10-19T03:30:28.491Z,0
2022-10-19T03:31:26.622Z,0
2022-10-19T03:32:31.885Z,0
2022-10-19T03:33:30.401Z,0
2022-10-19T03:34:20.852Z,0
2022-10-19T03:35:29.243Z,0
2022-10-19T03:36:31.616Z,0
2022-10-19T03:37:23.307Z,0
2022-10-19T03:38:28.223Z,0
2022-10-19T03:39:21.788Z,0
2022-10-19T03:40:27.883Z,0
2022-10-19T03:41:24.640Z,0
2022-10-19T03:42:23.047Z,0
2022-10-19T03:43:27.086Z,0
2022-10-19T03:44:23.126Z,0
2022-10-19T03:45:32.850Z,0
2022-10-19T03:46:24.818Z,0
2022-10-19T03:47:25.191Z,0
2022-10-19T03:48:31.226Z,0
2022-10-19T03:49:38.091Z,0
2022-10-19T03:50:21.744Z,0
2022-10-19T03:51:26.942Z,0
2022-10-19T03:52:36.012Z,0
2022-10-19T03:53:30.531Z,0
2022-10-19T03:54:22.531Z,0
2022-10-19T03:55:21.217Z,0
2022-10-19T03:56:26.770Z,0
2022-10-19T03:57:22.849Z,0
2022-10-19T03:58:25.701Z,0
2022-10-19T03:59:24.026Z,0
2022-10-19T04:00:31.480Z,0
2022-10-19T04:01:26.860Z,0
2022-10-19T04:02:36.407Z,0
2022-10-19T04:03:29.754Z,0
2022-10-19T04:04:20.635Z,0
2022-10-19T04:05:25.186Z,0
2022-10-19T04:06:37.264Z,0
2022-10-19T04:07:33.472Z,0
2022-10-19T04:08:20.736Z,0
2022-10-19T04:09:22.614Z,0
2022-10-19T04:10:20.515Z,0
2022-10-19T04:11:28.864Z,0
2022-10-19T04:12:22.902Z,0
2022-10-19T04:13:33.323Z,0
2022-10-19T04:14:45.780Z,0
2022-10-19T04:15:29.604Z,0
2022-10-19T04:16:21.069Z,0
2022-10-19T04:17:33.864Z,0
2022-10-19T04:18:28.512Z,0
2022-10-19T04:19:24.506Z,0
2022-10-19T04:20:48.358Z,0
2022-10-19T04:21:41.667Z,0
2022-10-19T04:22:28.399Z,0
2022-10-19T04:23:21.231Z,0
2022-10-19T04:24:22.879Z,0
2022-10-19T04:25:28.201Z,0
2022-10-19T04:26:28.207Z,0
2022-10-19T04:27:22.340Z,0
2022-10-19T04:28:37.135Z,0
2022-10-19T04:29:29.857Z,0
2022-10-19T04:30:21.979Z,0
2022-10-19T04:31:26.923Z,0
2022-10-19T04:32:19.913Z,0
2022-10-19T04:33:29.698Z,0
2022-10-19T04:34:27.317Z,0
2022-10-19T04:35:29.321Z,0
2022-10-19T04:36:30.058Z,0
2022-10-19T04:37:20.918Z,0
2022-10-19T04:38:49.465Z,0
2022-10-19T04:39:25.966Z,0
2022-10-19T04:40:23.521Z,0
2022-10-19T04:41:27.909Z,0
2022-10-19T04:42:30.815Z,0
2022-10-19T04:43:38.735Z,0
2022-10-19T04:44:26.726Z,0
2022-10-19T04:45:33.107Z,0
2022-10-19T04:46:28.153Z,0
2022-10-19T04:47:24.690Z,0
2022-10-19T04:48:33.005Z,0
2022-10-19T04:49:25.532Z,0
2022-10-19T04:50:26.620Z,0
2022-10-19T04:51:21.726Z,0
2022-10-19T04:52:35.297Z,0
2022-10-19T04:53:30.351Z,0
2022-10-19T04:54:26.420Z,0
2022-10-19T04:55:23.392Z,0
2022-10-19T04:56:31.943Z,0
2022-10-19T04:57:20.606Z,0
2022-10-19T04:58:30.502Z,0
2022-10-19T04:59:34.435Z,0
2022-10-19T05:00:39.975Z,0
2022-10-19T05:01:23.486Z,0
2022-10-19T05:02:25.116Z,0
2022-10-19T05:03:36.652Z,0
2022-10-19T05:04:27.247Z,0
2022-10-19T05:05:24.655Z,0
2022-10-19T05:06:30.815Z,0
2022-10-19T05:07:29.399Z,0
2022-10-19T05:08:23.775Z,0
2022-10-19T05:09:32.787Z,0
2022-10-19T05:10:19.995Z,0
2022-10-19T05:11:27.153Z,0
2022-10-19T05:12:26.124Z,0
2022-10-19T05:13:25.160Z,0
2022-10-19T05:14:45.534Z,0
2022-10-19T05:15:24.758Z,0
2022-10-19T05:16:34.806Z,0
2022-10-19T05:17:26.271Z,0
2022-10-19T05:18:24.917Z,0
2022-10-19T05:19:21.070Z,0
2022-10-19T05:20:27.331Z,0
2022-10-19T05:21:28.658Z,0
2022-10-19T05:22:24.841Z,0
2022-10-19T05:23:21.624Z,0
2022-10-19T05:24:22.122Z,0
2022-10-19T05:25:21.281Z,0
2022-10-19T05:26:23.916Z,0
2022-10-19T05:27:23.501Z,0
2022-10-19T05:28:27.010Z,0
2022-10-19T05:29:27.907Z,0
2022-10-19T05:30:40.514Z,0
2022-10-19T05:31:24.497Z,0
2022-10-19T05:32:25.847Z,-0
2022-10-19T05:33:25.679Z,0
2022-10-19T05:34:25.974Z,0
2022-10-19T05:35:27.315Z,0
2022-10-19T05:36:38.319Z,0
2022-10-19T05:37:35.911Z,0
2022-10-19T05:38:25.585Z,0
2022-10-19T05:39:26.262Z,0
2022-10-19T05:40:25.788Z,0
2022-10-19T05:41:37.098Z,0
2022-10-19T05:42:20.236Z,0
2022-10-19T05:43:26.235Z,0
2022-10-19T05:44:35.122Z,0
2022-10-19T05:45:29.263Z,0
2022-10-19T05:46:25.246Z,0
2022-10-19T05:47:28.802Z,0
2022-10-19T05:48:22.353Z,0
2022-10-19T05:49:24.970Z,0
2022-10-19T05:50:20.231Z,0
2022-10-19T05:51:42.750Z,0
2022-10-19T05:52:35.393Z,0
2022-10-19T05:53:25.305Z,0
2022-10-19T05:54:33.755Z,0
2022-10-19T05:55:27.456Z,0
2022-10-19T05:56:27.158Z,0
2022-10-19T05:57:38.855Z,0
2022-10-19T05:58:39.446Z,0
2022-10-19T05:59:33.407Z,0
2022-10-19T06:00:23.419Z,0
2022-10-19T06:01:36.677Z,0
2022-10-19T06:02:27.974Z,0
2022-10-19T06:03:20.975Z,0
2022-10-19T06:04:26.991Z,0
2022-10-19T06:05:21.449Z,0
2022-10-19T06:06:32.512Z,0
2022-10-19T06:07:25.136Z,0
2022-10-19T06:08:36.449Z,0
2022-10-19T06:09:35.437Z,0
2022-10-19T06:10:26.986Z,0
2022-10-19T06:11:21.441Z,0
2022-10-19T06:12:25.801Z,0
2022-10-19T06:13:29.079Z,0
2022-10-19T06:14:27.660Z,0
2022-10-19T06:15:36.397Z,0
2022-10-19T06:16:32.898Z,0
2022-10-19T06:17:30.336Z,0
2022-10-19T06:18:23.135Z,0
2022-10-19T06:19:31.644Z,1
2022-10-19T06:20:22.141Z,1
2022-10-19T06:21:25.091Z,1
2022-10-19T06:22:25.142Z,1
2022-10-19T06:23:33.343Z,1
2022-10-19T06:24:29.022Z,1
2022-10-19T06:25:28.184Z,1
2022-10-19T06:26:37.548Z,1
2022-10-19T06:27:29.576Z,1
2022-10-19T06:28:26.143Z,1
2022-10-19T06:29:21.104Z,1
2022-10-19T06:30:46.273Z,1
2022-10-19T06:31:29.304Z,1
2022-10-19T06:32:23.122Z,1
2022-10-19T06:33:25.632Z,1
2022-10-19T06:34:32.186Z,1
2022-10-19T06:35:24.933Z,1
2022-10-19T06:36:24.875Z,1
2022-10-19T06:37:34.143Z,1
2022-10-19T06:38:41.507Z,1
2022-10-19T06:39:26.956Z,1
2022-10-19T06:40:27.484Z,1
2022-10-19T06:41:20.344Z,1
2022-10-19T06:42:27.554Z,1
2022-10-19T06:43:21.081Z,1
2022-10-19T06:44:34.699Z,1
2022-10-19T06:45:45.417Z,1
2022-10-19T06:46:24.662Z,1
2022-10-19T06:47:24.105Z,1
2022-10-19T06:48:25.811Z,1
2022-10-19T06:49:25.447Z,1
2022-10-19T06:50:20.962Z,1
2022-10-19T06:51:46.492Z,1
2022-10-19T06:52:28.571Z,1
2022-10-19T06:53:22.749Z,1
2022-10-19T06:54:24.751Z,1
2022-10-19T06:55:30.598Z,1
2022-10-19T06:56:23.970Z,1
2022-10-19T06:57:23.473Z,1
2022-10-19T06:58:21.246Z,1
2022-10-19T06:59:56.390Z,1
2022-10-19T07:00:38.373Z,1
2022-10-19T07:01:29.336Z,1
2022-10-19T07:02:31.100Z,1
2022-10-19T07:03:27.948Z,1
2022-10-19T07:04:37.320Z,1
2022-10-19T07:05:27.983Z,1
2022-10-19T07:06:27.126Z,1
2022-10-19T07:07:23.443Z,1
2022-10-19T07:08:34.163Z,1
2022-10-19T07:09:29.157Z,1
2022-10-19T07:10:29.286Z,1
2022-10-19T07:11:27.247Z,1
2022-10-19T07:12:27.059Z,1
2022-10-19T07:13:23.848Z,1
2022-10-19T07:14:23.135Z,1
2022-10-19T07:15:34.148Z,1
2022-10-19T07:16:22.172Z,1
2022-10-19T07:17:27.487Z,1
2022-10-19T07:18:23.772Z,1
2022-10-19T07:19:22.112Z,1
2022-10-19T07:20:26.667Z,1
2022-10-19T07:21:23.214Z,1
2022-10-19T07:22:36.642Z,1
2022-10-19T07:23:28.203Z,1
2022-10-19T07:24:25.028Z,1
2022-10-19T07:25:22.744Z,1
2022-10-19T07:26:31.426Z,1
2022-10-19T07:27:27.010Z,1
2022-10-19T07:28:23.060Z,1
2022-10-19T07:29:41.662Z,1
2022-10-19T07:30:32.565Z,1
2022-10-19T07:31:27.243Z,1
2022-10-19T07:32:25.271Z,1
2022-10-19T07:33:32.578Z,1
2022-10-19T07:34:24.254Z,1
2022-10-19T07:35:25.305Z,1
2022-10-19T07:36:20.247Z,1
2022-10-19T07:37:33.905Z,1
2022-10-19T07:38:28.258Z,1
2022-10-19T07:39:23.102Z,1
2022-10-19T07:40:31.368Z,1
2022-10-19T07:41:27.445Z,1
2022-10-19T07:42:23.043Z,1
2022-10-19T07:43:24.510Z,1
2022-10-19T07:44:29.566Z,1
2022-10-19T07:45:21.899Z,1
2022-10-19T07:46:22.144Z,1
2022-10-19T07:47:35.665Z,1
2022-10-19T07:48:32.072Z,1
2022-10-19T07:49:19.914Z,1
2022-10-19T07:50:30.137Z,1
2022-10-19T07:51:21.579Z,1
2022-10-19T07:52:27.455Z,1
2022-10-19T07:53:21.110Z,1
2022-10-19T07:54:36.879Z,1
2022-10-19T07:55:30.438Z,1
2022-10-19T07:56:27.006Z,1
2022-10-19T07:57:20.139Z,1
2022-10-19T07:58:25.012Z,1
2022-10-19T07:59:26.174Z,1
2022-10-19T08:00:25.616Z,1
2022-10-19T08:01:32.726Z,1
2022-10-19T08:02:30.885Z,2
2022-10-19T08:04:14.198Z,2
2022-10-19T08:05:11.792Z,2
2022-10-19T08:05:13.018Z,2
2022-10-19T08:05:29.398Z,2
2022-10-19T08:06:23.756Z,2
2022-10-19T08:07:23.250Z,2
2022-10-19T08:08:31.211Z,2
2022-10-19T08:09:51.417Z,2
2022-10-19T08:10:23.878Z,2
2022-10-19T08:11:28.238Z,2
2022-10-19T08:12:23.342Z,2
2022-10-19T08:13:25.873Z,2
2022-10-19T08:14:21.994Z,2
2022-10-19T08:15:34.453Z,2
2022-10-19T08:16:27.216Z,2
2022-10-19T08:17:25.458Z,2
2022-10-19T08:18:35.093Z,2
2022-10-19T08:19:28.057Z,2
2022-10-19T08:20:25.287Z,2
2022-10-19T08:21:23.088Z,2
2022-10-19T08:22:32.776Z,2
2022-10-19T08:23:23.984Z,2
2022-10-19T08:24:24.413Z,2
2022-10-19T08:25:37.582Z,2
2022-10-19T08:26:29.468Z,2
2022-10-19T08:27:28.768Z,2
2022-10-19T08:28:24.070Z,2
2022-10-19T08:29:26.636Z,2
2022-10-19T08:30:28.999Z,2
2022-10-19T08:31:24.199Z,2
2022-10-19T08:32:22.478Z,2
2022-10-19T08:33:30.459Z,2
2022-10-19T08:34:22.237Z,2
2022-10-19T08:35:21.148Z,2
2022-10-19T08:36:26.125Z,2
2022-10-19T08:37:44.046Z,2
2022-10-19T08:38:25.322Z,2
2022-10-19T08:39:25.424Z,2
2022-10-19T08:40:27.143Z,2
2022-10-19T08:41:27.069Z,2
2022-10-19T08:42:23.849Z,2
2022-10-19T08:43:32.642Z,2
2022-10-19T08:44:21.227Z,2
2022-10-19T08:45:23.406Z,2
2022-10-19T08:46:30.468Z,2
2022-10-19T08:47:29.460Z,2
2022-10-19T08:48:27.023Z,3
2022-10-19T08:49:25.776Z,3
2022-10-19T08:50:20.980Z,3
2022-10-19T08:51:28.877Z,3
2022-10-19T08:52:23.812Z,3
2022-10-19T08:53:31.350Z,3
2022-10-19T08:54:29.304Z,3
2022-10-19T08:55:26.750Z,2
2022-10-19T08:56:45.789Z,2
2022-10-19T08:57:27.634Z,2
2022-10-19T08:58:30.238Z,2
2022-10-19T08:59:23.493Z,2
2022-10-19T09:00:33.436Z,2
2022-10-19T09:01:31.617Z,2
2022-10-19T09:02:19.582Z,2
2022-10-19T09:03:32.115Z,2
2022-10-19T09:04:28.937Z,2
2022-10-19T09:05:22.585Z,2
2022-10-19T09:06:26.354Z,2
2022-10-19T09:07:39.148Z,2
2022-10-19T09:08:24.043Z,2
2022-10-19T09:09:29.687Z,2
2022-10-19T09:10:21.440Z,2
2022-10-19T09:11:33.797Z,2
2022-10-19T09:12:30.143Z,2
2022-10-19T09:13:19.739Z,2
2022-10-19T09:14:24.779Z,2
2022-10-19T09:15:26.594Z,3
2022-10-19T09:16:28.729Z,3
2022-10-19T09:17:21.489Z,3
2022-10-19T09:18:34.469Z,3
2022-10-19T09:19:24.184Z,3
2022-10-19T09:20:26.019Z,3
2022-10-19T09:21:33.430Z,3
2022-10-19T09:22:20.195Z,3
2022-10-19T09:23:25.296Z,3
2022-10-19T09:24:21.385Z,3
2022-10-19T09:25:29.968Z,3
2022-10-19T09:26:27.512Z,3
2022-10-19T09:27:23.338Z,3
2022-10-19T09:28:20.976Z,3
2022-10-19T09:29:24.497Z,3
2022-10-19T09:30:25.345Z,3
2022-10-19T09:31:21.381Z,3
2022-10-19T09:32:33.547Z,3
2022-10-19T09:33:29.627Z,3
2022-10-19T09:34:23.203Z,4
2022-10-19T09:35:26.657Z,4
2022-10-19T09:36:39.282Z,4
2022-10-19T09:37:25.975Z,3
2022-10-19T09:38:21.229Z,3
2022-10-19T09:39:34.644Z,4
2022-10-19T09:40:32.849Z,4
2022-10-19T09:41:24.704Z,4
2022-10-19T09:42:29.271Z,4
2022-10-19T09:43:26.013Z,4
2022-10-19T09:44:25.549Z,4
2022-10-19T09:45:35.361Z,4
2022-10-19T09:46:37.969Z,4
2022-10-19T09:47:20.910Z,5
2022-10-19T09:48:27.042Z,7
2022-10-19T09:49:44.630Z,9
2022-10-19T09:50:28.607Z,17
2022-10-19T09:51:28.796Z,22
2022-10-19T09:52:25.064Z,23
2022-10-19T09:53:31.641Z,24
2022-10-19T09:54:27.477Z,25
2022-10-19T09:55:25.150Z,26
2022-10-19T09:56:36.202Z,26
2022-10-19T09:57:34.267Z,29
2022-10-19T09:58:30.529Z,30
2022-10-19T09:59:24.013Z,29
2022-10-19T10:00:35.688Z,30
2022-10-19T10:01:40.140Z,28
2022-10-19T10:02:24.663Z,29
2022-10-19T10:03:33.349Z,28
2022-10-19T10:04:23.555Z,32
2022-10-19T10:05:31.844Z,36
2022-10-19T10:06:21.358Z,40
2022-10-19T10:07:26.915Z,42
2022-10-19T10:08:32.016Z,40
2022-10-19T10:09:23.520Z,40
2022-10-19T10:10:32.336Z,40
2022-10-19T10:11:30.919Z,38
2022-10-19T10:12:27.706Z,30
2022-10-19T10:13:24.835Z,29
2022-10-19T10:14:28.989Z,37
2022-10-19T10:15:20.017Z,39
2022-10-19T10:16:25.021Z,41
2022-10-19T10:17:42.893Z,45
2022-10-19T10:18:32.577Z,43
2022-10-19T10:19:27.354Z,44
2022-10-19T10:20:21.603Z,44
2022-10-19T10:21:25.532Z,42
2022-10-19T10:22:28.033Z,38
2022-10-19T10:23:25.822Z,36
2022-10-19T10:24:20.738Z,35
2022-10-19T10:25:33.266Z,32
2022-10-19T10:26:28.184Z,35
2022-10-19T10:27:25.476Z,37
2022-10-19T10:28:25.915Z,38
2022-10-19T10:29:31.239Z,37
2022-10-19T10:30:25.891Z,37
2022-10-19T10:31:26.385Z,36
2022-10-19T10:32:23.285Z,36
2022-10-19T10:33:40.662Z,38
2022-10-19T10:34:28.667Z,32
2022-10-19T10:35:33.170Z,39
2022-10-19T10:36:22.953Z,38
2022-10-19T10:37:26.536Z,39
2022-10-19T10:38:36.616Z,39
2022-10-19T10:39:30.732Z,37
2022-10-19T10:40:28.537Z,36
2022-10-19T10:41:22.733Z,33
2022-10-19T10:42:21.761Z,32
2022-10-19T10:43:40.722Z,29
2022-10-19T10:44:23.287Z,29
2022-10-19T10:45:24.123Z,24
2022-10-19T10:46:33.964Z,21
2022-10-19T10:47:25.443Z,19
2022-10-19T10:48:21.473Z,16
2022-10-19T10:49:24.865Z,16
2022-10-19T10:50:27.126Z,16
2022-10-19T10:51:27.119Z,16
2022-10-19T10:52:28.191Z,16
2022-10-19T10:53:19.737Z,15
2022-10-19T10:54:25.428Z,19
2022-10-19T10:55:21.221Z,28
2022-10-19T10:56:28.011Z,30
2022-10-19T10:57:44.380Z,23
2022-10-19T10:58:25.569Z,17
2022-10-19T10:59:21.867Z,12
2022-10-19T11:00:21.738Z,11
2022-10-19T11:01:28.113Z,12
2022-10-19T11:02:21.050Z,13
2022-10-19T11:03:33.901Z,18
2022-10-19T11:04:28.982Z,29
2022-10-19T11:05:25.346Z,32
2022-10-19T11:06:25.862Z,40
2022-10-19T11:07:26.258Z,44
2022-10-19T11:08:22.427Z,43
2022-10-19T11:09:23.386Z,39
2022-10-19T11:10:34.109Z,40
2022-10-19T11:11:25.310Z,41
2022-10-19T11:12:24.539Z,38
2022-10-19T11:13:35.149Z,39
2022-10-19T11:14:23.189Z,38
2022-10-19T11:15:33.545Z,40
2022-10-19T11:16:21.038Z,44
2022-10-19T11:17:24.042Z,43
2022-10-19T11:18:23.799Z,41
2022-10-19T11:19:23.676Z,43
2022-10-19T11:20:34.396Z,44
2022-10-19T11:21:32.977Z,42
2022-10-19T11:22:26.389Z,39
2022-10-19T11:23:23.842Z,36
2022-10-19T11:24:31.283Z,34
2022-10-19T11:25:29.192Z,33
2022-10-19T11:26:38.494Z,32
2022-10-19T11:27:33.613Z,32
2022-10-19T11:28:19.892Z,31
2022-10-19T11:29:25.361Z,30
2022-10-19T11:30:23.586Z,28
2022-10-19T11:31:31.775Z,24
2022-10-19T11:32:32.231Z,21
2022-10-19T11:33:25.506Z,22
2022-10-19T11:34:29.674Z,25
2022-10-19T11:35:31.330Z,26
2022-10-19T11:36:25.351Z,28
2022-10-19T11:37:21.376Z,33
2022-10-19T11:38:29.578Z,32
2022-10-19T11:39:29.723Z,26
2022-10-19T11:40:22.064Z,22
2022-10-19T11:41:34.576Z,28
2022-10-19T11:42:29.343Z,22
2022-10-19T11:43:31.760Z,27
2022-10-19T11:44:25.691Z,32
2022-10-19T11:45:23.894Z,30
2022-10-19T11:46:27.331Z,35
2022-10-19T11:47:23.426Z,37
2022-10-19T11:48:33.644Z,35
2022-10-19T11:49:29.360Z,33
2022-10-19T11:50:31.081Z,33
2022-10-19T11:51:22.510Z,38
2022-10-19T11:52:24.150Z,42
2022-10-19T11:53:25.198Z,44
2022-10-19T11:54:28.196Z,45
2022-10-19T11:55:38.430Z,44
2022-10-19T11:56:39.109Z,43
2022-10-19T11:57:26.754Z,44
2022-10-19T11:58:21.367Z,44
2022-10-19T11:59:34.253Z,43
2022-10-19T12:00:39.062Z,40
2022-10-19T12:01:22.980Z,39
2022-10-19T12:02:25.234Z,35
2022-10-19T12:03:32.158Z,39
2022-10-19T12:04:27.818Z,44
2022-10-19T12:05:26.426Z,46
2022-10-19T12:06:31.575Z,37
2022-10-19T12:07:42.122Z,38
2022-10-19T12:08:27.747Z,43
2022-10-19T12:09:35.870Z,40
2022-10-19T12:10:31.654Z,37
2022-10-19T12:11:27.775Z,33
2022-10-19T12:12:23.023Z,33
2022-10-19T12:13:20.602Z,31
2022-10-19T12:14:28.192Z,28
2022-10-19T12:15:23.960Z,23
2022-10-19T12:16:21.916Z,26
2022-10-19T12:17:30.577Z,29
2022-10-19T12:18:26.062Z,33
2022-10-19T12:19:22.686Z,36
2022-10-19T12:20:32.917Z,45
2022-10-19T12:21:27.699Z,46
2022-10-19T12:22:29.177Z,53
2022-10-19T12:23:28.855Z,56
2022-10-19T12:24:32.067Z,56
2022-10-19T12:25:30.882Z,57
2022-10-19T12:26:21.322Z,56
2022-10-19T12:27:21.623Z,56
2022-10-19T12:28:28.606Z,51
2022-10-19T12:29:23.675Z,32
2022-10-19T12:30:32.707Z,20
2022-10-19T12:31:22.297Z,18
2022-10-19T12:32:25.641Z,16
2022-10-19T12:33:23.145Z,14
2022-10-19T12:34:23.011Z,25
2022-10-19T12:35:31.384Z,36
2022-10-19T12:36:28.028Z,40
2022-10-19T12:37:26.487Z,49
2022-10-19T12:38:24.338Z,48
2022-10-19T12:39:28.846Z,39
2022-10-19T12:40:21.617Z,39
2022-10-19T12:41:25.992Z,41
2022-10-19T12:42:37.583Z,43
2022-10-19T12:43:23.483Z,45
2022-10-19T12:44:35.973Z,43
2022-10-19T12:45:20.861Z,42
2022-10-19T12:46:28.804Z,39
2022-10-19T12:47:23.778Z,43
2022-10-19T12:48:32.918Z,42
2022-10-19T12:49:31.040Z,40
2022-10-19T12:50:27.940Z,42
2022-10-19T12:51:39.994Z,41
2022-10-19T12:52:26.115Z,38
2022-10-19T12:53:21.283Z,37
2022-10-19T12:54:23.886Z,36
2022-10-19T12:55:31.732Z,30
2022-10-19T12:56:29.259Z,26
2022-10-19T12:57:25.352Z,22
2022-10-19T12:58:22.754Z,18
2022-10-19T12:59:29.237Z,18
2022-10-19T13:00:25.464Z,23
2022-10-19T13:01:24.078Z,26
2022-10-19T13:02:38.416Z,25
2022-10-19T13:03:27.595Z,22
2022-10-19T13:04:25.352Z,26
2022-10-19T13:05:38.716Z,33
2022-10-19T13:06:29.749Z,47
2022-10-19T13:07:29.478Z,46
2022-10-19T13:08:22.467Z,49
2022-10-19T13:09:24.834Z,47
2022-10-19T13:10:27.270Z,48
2022-10-19T13:11:23.562Z,48
2022-10-19T13:12:38.056Z,49
2022-10-19T13:13:33.237Z,49
2022-10-19T13:14:21.991Z,49
2022-10-19T13:15:23.440Z,45
2022-10-19T13:16:25.399Z,41
2022-10-19T13:17:33.300Z,40
2022-10-19T13:18:26.638Z,41
2022-10-19T13:19:36.896Z,40
2022-10-19T13:20:31.193Z,34
2022-10-19T13:21:25.283Z,28
2022-10-19T13:22:21.555Z,23
2022-10-19T13:23:24.047Z,16
2022-10-19T13:24:25.858Z,12
2022-10-19T13:25:25.419Z,11
2022-10-19T13:26:20.420Z,11
2022-10-19T13:27:33.739Z,11
2022-10-19T13:28:27.246Z,11
2022-10-19T13:29:21.231Z,11
2022-10-19T13:30:29.762Z,11
2022-10-19T13:31:20.827Z,12
2022-10-19T13:32:25.637Z,11
2022-10-19T13:33:38.884Z,11
2022-10-19T13:34:29.545Z,11
2022-10-19T13:35:30.479Z,11
2022-10-19T13:36:23.345Z,12
2022-10-19T13:37:34.823Z,18
2022-10-19T13:38:30.650Z,18
2022-10-19T13:39:23.793Z,15
2022-10-19T13:40:33.159Z,17
2022-10-19T13:41:31.198Z,18
2022-10-19T13:42:25.486Z,18
2022-10-19T13:43:25.585Z,17
2022-10-19T13:44:31.441Z,16
2022-10-19T13:45:28.980Z,15
2022-10-19T13:46:25.634Z,15
2022-10-19T13:47:20.362Z,17
2022-10-19T13:48:34.095Z,18
2022-10-19T13:49:31.775Z,18
2022-10-19T13:50:23.623Z,18
2022-10-19T13:51:33.299Z,18
2022-10-19T13:52:27.486Z,19
2022-10-19T13:53:27.375Z,19
2022-10-19T13:54:24.405Z,22
2022-10-19T13:55:29.577Z,28
2022-10-19T13:56:27.181Z,32
2022-10-19T13:57:23.482Z,35
2022-10-19T13:58:33.719Z,34
2022-10-19T13:59:29.054Z,34
2022-10-19T14:00:24.596Z,33
2022-10-19T14:01:22.605Z,32
2022-10-19T14:02:22.629Z,32
2022-10-19T14:03:29.054Z,31
2022-10-19T14:04:23.902Z,30
2022-10-19T14:05:35.705Z,31
2022-10-19T14:06:33.524Z,33
2022-10-19T14:07:25.325Z,33
2022-10-19T14:08:24.360Z,33
2022-10-19T14:09:20.489Z,28
2022-10-19T14:10:32.701Z,24
2022-10-19T14:11:32.223Z,26
2022-10-19T14:12:33.049Z,26
2022-10-19T14:13:27.276Z,29
2022-10-19T14:14:24.890Z,28
2022-10-19T14:15:27.263Z,28
2022-10-19T14:16:26.260Z,30
2022-10-19T14:17:22.060Z,30
2022-10-19T14:18:23.828Z,29
2022-10-19T14:19:24.889Z,27
2022-10-19T14:20:30.994Z,24
2022-10-19T14:21:25.409Z,22
2022-10-19T14:22:30.994Z,23
2022-10-19T14:23:35.874Z,25
2022-10-19T14:24:24.109Z,26
2022-10-19T14:25:21.633Z,27
2022-10-19T14:26:24.974Z,25
2022-10-19T14:27:27.741Z,24
2022-10-19T14:28:28.669Z,25
2022-10-19T14:29:40.151Z,24
2022-10-19T14:30:29.758Z,24
2022-10-19T14:31:27.483Z,23
2022-10-19T14:32:26.562Z,22
2022-10-19T14:33:26.777Z,23
2022-10-19T14:34:31.985Z,23
2022-10-19T14:35:25.107Z,24
2022-10-19T14:36:37.254Z,24
2022-10-19T14:37:21.812Z,26
2022-10-19T14:38:25.696Z,26
2022-10-19T14:39:24.750Z,26
2022-10-19T14:40:26.529Z,26
2022-10-19T14:41:27.628Z,27
2022-10-19T14:42:27.587Z,27
2022-10-19T14:43:34.894Z,27
2022-10-19T14:44:24.519Z,28
2022-10-19T14:45:27.050Z,28
2022-10-19T14:46:25.219Z,26
2022-10-19T14:47:28.831Z,25
2022-10-19T14:48:19.701Z,24
2022-10-19T14:49:25.037Z,21
2022-10-19T14:50:39.000Z,17
2022-10-19T14:51:32.438Z,17
2022-10-19T14:52:31.969Z,16
2022-10-19T14:53:23.449Z,15
2022-10-19T14:54:24.590Z,18
2022-10-19T14:55:22.925Z,18
2022-10-19T14:56:23.603Z,15
2022-10-19T14:57:36.679Z,17
2022-10-19T14:58:34.449Z,17
2022-10-19T14:59:36.655Z,13
2022-10-19T15:00:36.892Z,13
2022-10-19T15:01:38.712Z,17
2022-10-19T15:02:28.339Z,19
2022-10-19T15:03:23.540Z,20
2022-10-19T15:04:35.996Z,19
2022-10-19T15:05:34.908Z,19
2022-10-19T15:06:25.579Z,21
2022-10-19T15:07:23.581Z,21
2022-10-19T15:08:34.862Z,21
2022-10-19T15:09:37.415Z,19
2022-10-19T15:10:23.554Z,20
2022-10-19T15:11:37.844Z,20
2022-10-19T15:12:32.477Z,20
2022-10-19T15:13:27.176Z,21
2022-10-19T15:14:23.615Z,20
2022-10-19T15:15:31.300Z,19
2022-10-19T15:16:36.729Z,20
2022-10-19T15:17:26.471Z,19
2022-10-19T15:18:48.391Z,18
2022-10-19T15:19:29.245Z,15
2022-10-19T15:20:29.058Z,11
2022-10-19T15:21:24.734Z,9
2022-10-19T15:22:33.257Z,8
2022-10-19T15:23:28.377Z,9
2022-10-19T15:24:25.208Z,10
2022-10-19T15:25:22.563Z,12
2022-10-19T15:26:30.559Z,10
2022-10-19T15:27:25.091Z,10
2022-10-19T15:28:21.984Z,11
2022-10-19T15:29:35.405Z,11
2022-10-19T15:30:27.066Z,10
2022-10-19T15:31:25.095Z,10
2022-10-19T15:32:27.218Z,9
2022-10-19T15:33:24.326Z,8
2022-10-19T15:34:25.261Z,6
2022-10-19T15:35:23.147Z,5
2022-10-19T15:36:37.398Z,5
2022-10-19T15:37:29.890Z,5
2022-10-19T15:38:24.725Z,5
2022-10-19T15:39:41.160Z,5
2022-10-19T15:40:26.092Z,5
2022-10-19T15:41:25.191Z,5
2022-10-19T15:42:23.035Z,5
2022-10-19T15:43:34.399Z,4